• Join FlightAware (Why Join?)
  • Login
  • US Flag 
06:39AM EDT


 

Airport Tracker/Info


-or-


 

Live Flight TrackerFlight Track Log ✈ EJA829P ✈ 20-Jul-2013 ✈ KSDL - KASE

Flight Track Log - Related Links

Times and Time Zones

All times are in EDT time to prevent confusion due to time zone crossing. See the EJA829P flight status page for this flight to view local times or setup timezone preferences in your user account.

Time Position Orientation Groundspeed Altitude Reporting Facility
EDT Latitude Longitude Course Direction KTS MPH feet Rate Location/Type
12:07PM 33.6364 -112.0164 15° North 215 247 5,900  Level Albuquerque Center
12:08PM 33.6914 -111.9983 15° North 232 267 9,000 2,700 Climbing Albuquerque Center
12:09PM 33.7458 -111.9425 40° Northeast 257 296 11,500 2,280 Climbing Albuquerque Center
12:10PM 33.8175 -111.8942 29° Northeast 295 339 13,800 2,220 Climbing Albuquerque Center
12:12PM 33.8906 -111.8431 30° Northeast 303 349 16,200 2,340 Climbing Albuquerque Center
12:13PM 33.9797 -111.7803 30° Northeast 310 357 18,600 2,040 Climbing Albuquerque Center
12:14PM 34.0583 -111.7250 30° Northeast 325 374 20,400 1,380 Climbing Albuquerque Center
12:15PM 34.1333 -111.6722 30° Northeast 341 392 21,500 1,200 Climbing Albuquerque Center
12:16PM 34.2192 -111.6122 30° Northeast 355 409 23,000 1,440 Climbing Albuquerque Center
12:17PM 34.3042 -111.5514 31° Northeast 355 409 24,500 1,560 Climbing Albuquerque Center
12:18PM 34.4064 -111.4792 30° Northeast 355 409 26,300 1,380 Climbing Albuquerque Center
12:19PM 34.4928 -111.4172 31° Northeast 359 413 27,400 1,140 Climbing Albuquerque Center
12:20PM 34.5831 -111.3536 30° Northeast 370 426 28,700 1,200 Climbing Albuquerque Center
12:21PM 34.6725 -111.2883 31° Northeast 374 430 30,000 1,200 Climbing Albuquerque Center
12:22PM 34.7622 -111.2239 31° Northeast 375 432 31,300 1,200 Climbing Albuquerque Center
12:23PM 34.8519 -111.1589 31° Northeast 376 433 32,500 780 Climbing Albuquerque Center
12:24PM 34.9658 -111.0772 30° Northeast 388 447 33,000 240 Climbing Albuquerque Center
12:25PM 35.0700 -111.0011 31° Northeast 410 472 33,000  Level Albuquerque Center
12:26PM 35.1681 -110.9283 31° Northeast 423 487 33,000  Level Albuquerque Center
12:27PM 35.2675 -110.8569 30° Northeast 430 495 33,000  Level Albuquerque Center
12:28PM 35.3842 -110.7722 31° Northeast 433 498 33,000  Level Albuquerque Center
12:29PM 35.4839 -110.6983 31° Northeast 435 501 33,000  Level Albuquerque Center
12:30PM 35.5992 -110.6142 31° Northeast 432 497 33,000  Level Albuquerque Center
12:31PM 35.6978 -110.5403 31° Northeast 431 496 33,000  Level Albuquerque Center
12:32PM 35.8097 -110.4486 34° Northeast 432 497 33,000  Level Albuquerque Center
12:33PM 35.9017 -110.3647 36° Northeast 430 495 33,000  Level Albuquerque Center
12:34PM 35.9864 -110.2889 36° Northeast 430 495 33,000  Level Denver Center
12:35PM 36.0831 -110.2011 36° Northeast 431 496 33,000  Level Denver Center
12:36PM 36.1958 -110.0983 36° Northeast 433 498 33,000  Level Denver Center
12:37PM 36.2892 -110.0144 36° Northeast 431 496 33,000  Level Denver Center
12:38PM 36.3819 -109.9281 37° Northeast 433 498 33,000  Level Denver Center
12:39PM 36.4911 -109.8278 36° Northeast 434 499 33,000  Level Denver Center
12:40PM 36.5856 -109.7408 36° Northeast 437 503 33,000  Level Denver Center
12:41PM 36.6947 -109.6406 36° Northeast 436 502 33,000  Level Denver Center
12:42PM 36.7878 -109.5531 37° Northeast 436 502 33,000  Level Denver Center
12:43PM 36.8967 -109.4531 36° Northeast 434 499 33,000  Level Denver Center
12:44PM 36.9889 -109.3656 37° Northeast 434 499 33,000  Level Denver Center
12:45PM 37.0983 -109.2636 37° Northeast 434 499 33,000  Level Denver Center
12:46PM 37.1919 -109.1744 37° Northeast 438 504 33,000  Level Denver Center
12:47PM 37.3000 -109.0731 37° Northeast 435 501 33,000  Level Denver Center
12:49PM 37.3917 -108.9842 38° Northeast 432 497 33,000  Level Denver Center
12:50PM 37.4847 -108.8950 37° Northeast 437 503 33,000  Level Denver Center
12:51PM 37.5936 -108.7892 38° Northeast 442 509 33,000  Level Denver Center
12:52PM 37.6867 -108.7003 37° Northeast 439 505 33,000 -60 Level Denver Center
12:53PM 37.7953 -108.5950 37° Northeast 438 504 32,900 -600 Descending Denver Center
12:54PM 37.8892 -108.5058 37° Northeast 440 506 31,800 -1,200 Descending Denver Center
12:55PM 37.9956 -108.4019 38° Northeast 435 501 30,500 -1,260 Descending Denver Center
12:56PM 38.0953 -108.3047 37° Northeast 428 493 29,200 -1,020 Descending Denver Center
12:57PM 38.1839 -108.2183 37° Northeast 422 486 28,400 -960 Descending Denver Center
12:58PM 38.2894 -108.1144 38° Northeast 428 493 27,200 -1,200 Descending Denver Center
12:59PM 38.3803 -108.0278 37° Northeast 427 491 25,900 -1,380 Descending Denver Center
01:00PM 38.4689 -107.9392 38° Northeast 424 488 24,400 -1,560 Descending Denver Center
01:01PM 38.5656 -107.8436 38° Northeast 400 460 22,700 -1,260 Descending Denver Center
01:02PM 38.6475 -107.7633 37° Northeast 390 449 21,800 -900 Descending Denver Center
01:03PM 38.7467 -107.6644 38° Northeast 403 464 20,900 -720 Descending Denver Center
01:04PM 38.8306 -107.5800 38° Northeast 402 463 20,400 -480 Descending Denver Center
01:05PM 38.9194 -107.4897 38° Northeast 376 433 20,000 -240 Descending Denver Center
01:06PM 38.9983 -107.4122 37° Northeast 374 430 20,000  Level Denver Center
01:07PM 39.0917 -107.3181 38° Northeast 380 437 20,000  Level Denver Center
01:08PM 39.1656 -107.2278 43° Northeast 381 438 20,000 -540 Level Denver Center
01:09PM 39.2747 -107.1886 16° North 366 421 19,000 -1,260 Descending Denver Center
01:10PM 39.3567 -107.1642 13° North 310 357 17,500 -1,680 Descending Denver Center
01:11PM 39.4050 -107.0989 46° Northeast 277 319 15,600 -1,920 Descending Denver Center
01:12PM 39.4217 -107.0053 77° East 279 321 13,600 -1,380 Descending Denver Center
01:13PM 39.3753 -106.9392 132° Southeast 251 289 12,800 -1,080 Descending Denver Center
01:14PM 39.3192 -106.9161 162° South 182 209 11,400 -1,800 Descending Denver Center
01:15PM 39.2772 -106.8961 160° South 170 196 9,200 -1,500 Descending Denver Center
01:16PM 39.2381 -106.8761 158° South 167 192 8,400 -780 Descending Denver Center